sensor_id;sensor_type;location;lat;lon;timestamp;pressure;altitude;pressure_sealevel;temperature;humidity
70302;BME280;57706;56.326;43.882;2024-01-30T00:02:14;101282.00;;;-2.99;100.00
70302;BME280;57706;56.326;43.882;2024-01-30T00:04:40;101280.31;;;-2.74;100.00
70302;BME280;57706;56.326;43.882;2024-01-30T00:07:06;101267.66;;;-2.81;100.00
70302;BME280;57706;56.326;43.882;2024-01-30T00:09:31;101264.31;;;-2.59;100.00
70302;BME280;57706;56.326;43.882;2024-01-30T00:11:57;101260.84;;;-2.58;100.00
70302;BME280;57706;56.326;43.882;2024-01-30T00:14:23;101262.47;;;-2.55;100.00
70302;BME280;57706;56.326;43.882;2024-01-30T00:16:50;101249.63;;;-2.33;100.00
70302;BME280;57706;56.326;43.882;2024-01-30T00:19:16;101251.19;;;-2.29;100.00
70302;BME280;57706;56.326;43.882;2024-01-30T00:21:41;101250.25;;;-2.50;100.00
70302;BME280;57706;56.326;43.882;2024-01-30T00:24:07;101247.06;;;-2.57;100.00
70302;BME280;57706;56.326;43.882;2024-01-30T00:26:33;101243.16;;;-2.43;100.00
70302;BME280;57706;56.326;43.882;2024-01-30T00:28:59;101240.81;;;-2.50;100.00
70302;BME280;57706;56.326;43.882;2024-01-30T00:31:25;101243.94;;;-2.41;100.00
70302;BME280;57706;56.326;43.882;2024-01-30T00:33:51;101232.88;;;-2.43;100.00
70302;BME280;57706;56.326;43.882;2024-01-30T00:36:17;101227.38;;;-2.58;100.00
70302;BME280;57706;56.326;43.882;2024-01-30T00:38:43;101236.25;;;-2.67;100.00
70302;BME280;57706;56.326;43.882;2024-01-30T00:41:09;101232.41;;;-2.55;100.00
70302;BME280;57706;56.326;43.882;2024-01-30T00:43:35;101235.78;;;-2.77;100.00
70302;BME280;57706;56.326;43.882;2024-01-30T00:46:01;101230.13;;;-2.39;100.00
70302;BME280;57706;56.326;43.882;2024-01-30T00:48:27;101235.25;;;-2.39;100.00
70302;BME280;57706;56.326;43.882;2024-01-30T00:50:53;101224.22;;;-2.42;100.00
70302;BME280;57706;56.326;43.882;2024-01-30T00:53:19;101221.91;;;-2.26;100.00
70302;BME280;57706;56.326;43.882;2024-01-30T00:55:45;101217.31;;;-2.64;100.00
70302;BME280;57706;56.326;43.882;2024-01-30T00:58:10;101224.00;;;-2.36;100.00
70302;BME280;57706;56.326;43.882;2024-01-30T01:00:36;101234.06;;;-2.54;100.00
70302;BME280;57706;56.326;43.882;2024-01-30T01:03:02;101223.31;;;-2.64;100.00
70302;BME280;57706;56.326;43.882;2024-01-30T01:05:28;101216.53;;;-2.66;100.00
70302;BME280;57706;56.326;43.882;2024-01-30T01:07:55;101210.13;;;-2.56;100.00
70302;BME280;57706;56.326;43.882;2024-01-30T01:10:20;101224.38;;;-2.69;100.00
70302;BME280;57706;56.326;43.882;2024-01-30T01:12:48;101214.16;;;-2.49;100.00
70302;BME280;57706;56.326;43.882;2024-01-30T01:15:14;101216.53;;;-2.66;100.00
70302;BME280;57706;56.326;43.882;2024-01-30T01:17:40;101235.22;;;-2.61;100.00
70302;BME280;57706;56.326;43.882;2024-01-30T01:20:06;101219.09;;;-2.66;100.00
70302;BME280;57706;56.326;43.882;2024-01-30T01:22:33;101216.19;;;-2.57;100.00
70302;BME280;57706;56.326;43.882;2024-01-30T01:25:00;101217.50;;;-2.46;100.00
70302;BME280;57706;56.326;43.882;2024-01-30T01:27:26;101209.34;;;-2.34;100.00
70302;BME280;57706;56.326;43.882;2024-01-30T01:29:52;101208.19;;;-2.49;100.00
70302;BME280;57706;56.326;43.882;2024-01-30T01:32:18;101209.19;;;-2.53;100.00
70302;BME280;57706;56.326;43.882;2024-01-30T01:34:44;101209.00;;;-2.49;100.00
70302;BME280;57706;56.326;43.882;2024-01-30T01:37:10;101201.09;;;-2.44;100.00
70302;BME280;57706;56.326;43.882;2024-01-30T01:39:36;101189.50;;;-2.32;100.00
70302;BME280;57706;56.326;43.882;2024-01-30T01:42:02;101201.72;;;-2.37;100.00
70302;BME280;57706;56.326;43.882;2024-01-30T01:44:28;101195.50;;;-2.31;100.00
70302;BME280;57706;56.326;43.882;2024-01-30T01:46:54;101193.28;;;-2.18;100.00
70302;BME280;57706;56.326;43.882;2024-01-30T01:49:27;101185.03;;;-2.49;100.00
70302;BME280;57706;56.326;43.882;2024-01-30T01:51:55;101190.81;;;-2.22;100.00
70302;BME280;57706;56.326;43.882;2024-01-30T01:54:26;101186.38;;;-2.40;100.00
70302;BME280;57706;56.326;43.882;2024-01-30T01:56:53;101195.75;;;-2.15;100.00
70302;BME280;57706;56.326;43.882;2024-01-30T01:59:20;101188.06;;;-2.39;100.00
70302;BME280;57706;56.326;43.882;2024-01-30T02:01:46;101189.16;;;-2.23;100.00
70302;BME280;57706;56.326;43.882;2024-01-30T02:04:16;101181.22;;;-2.40;100.00
70302;BME280;57706;56.326;43.882;2024-01-30T02:06:43;101190.09;;;-2.25;100.00
70302;BME280;57706;56.326;43.882;2024-01-30T02:09:10;101185.31;;;-2.12;100.00
70302;BME280;57706;56.326;43.882;2024-01-30T02:11:36;101179.97;;;-2.30;100.00
70302;BME280;57706;56.326;43.882;2024-01-30T02:14:06;101182.50;;;-2.28;100.00
70302;BME280;57706;56.326;43.882;2024-01-30T02:16:32;101176.94;;;-2.17;100.00
70302;BME280;57706;56.326;43.882;2024-01-30T02:18:58;101174.41;;;-2.19;100.00
70302;BME280;57706;56.326;43.882;2024-01-30T02:21:34;101179.28;;;-2.11;100.00
70302;BME280;57706;56.326;43.882;2024-01-30T02:24:01;101181.19;;;-2.16;100.00
70302;BME280;57706;56.326;43.882;2024-01-30T02:26:28;101183.16;;;-2.01;100.00
70302;BME280;57706;56.326;43.882;2024-01-30T02:28:54;101181.34;;;-1.99;100.00
70302;BME280;57706;56.326;43.882;2024-01-30T02:31:20;101171.41;;;-2.08;100.00
70302;BME280;57706;56.326;43.882;2024-01-30T02:33:46;101183.44;;;-2.09;100.00
70302;BME280;57706;56.326;43.882;2024-01-30T02:36:12;101190.47;;;-1.90;100.00
70302;BME280;57706;56.326;43.882;2024-01-30T02:38:37;101189.13;;;-1.78;100.00
70302;BME280;57706;56.326;43.882;2024-01-30T02:41:03;101181.28;;;-1.97;100.00
70302;BME280;57706;56.326;43.882;2024-01-30T02:43:29;101181.41;;;-2.00;100.00
70302;BME280;57706;56.326;43.882;2024-01-30T02:45:55;101181.94;;;-1.92;100.00
70302;BME280;57706;56.326;43.882;2024-01-30T02:48:20;101181.91;;;-1.70;100.00
70302;BME280;57706;56.326;43.882;2024-01-30T02:50:46;101185.22;;;-1.66;100.00
70302;BME280;57706;56.326;43.882;2024-01-30T02:53:12;101180.25;;;-1.93;100.00
70302;BME280;57706;56.326;43.882;2024-01-30T02:55:38;101179.16;;;-1.87;100.00
70302;BME280;57706;56.326;43.882;2024-01-30T02:58:04;101172.94;;;-2.04;100.00
70302;BME280;57706;56.326;43.882;2024-01-30T03:00:30;101168.22;;;-1.72;100.00
70302;BME280;57706;56.326;43.882;2024-01-30T03:02:55;101173.78;;;-1.81;100.00
70302;BME280;57706;56.326;43.882;2024-01-30T03:05:21;101171.31;;;-1.63;100.00
70302;BME280;57706;56.326;43.882;2024-01-30T03:07:47;101186.22;;;-1.70;100.00
70302;BME280;57706;56.326;43.882;2024-01-30T03:10:13;101181.63;;;-1.84;100.00
70302;BME280;57706;56.326;43.882;2024-01-30T03:12:38;101175.97;;;-1.92;100.00
70302;BME280;57706;56.326;43.882;2024-01-30T03:15:04;101180.06;;;-1.88;100.00
70302;BME280;57706;56.326;43.882;2024-01-30T03:17:31;101182.38;;;-2.03;100.00
70302;BME280;57706;56.326;43.882;2024-01-30T03:19:56;101174.16;;;-1.90;100.00
70302;BME280;57706;56.326;43.882;2024-01-30T03:22:22;101177.91;;;-1.56;100.00
70302;BME280;57706;56.326;43.882;2024-01-30T03:24:48;101178.16;;;-1.62;100.00
70302;BME280;57706;56.326;43.882;2024-01-30T03:27:14;101181.00;;;-1.69;100.00
70302;BME280;57706;56.326;43.882;2024-01-30T03:29:39;101175.31;;;-1.56;100.00
70302;BME280;57706;56.326;43.882;2024-01-30T03:32:05;101169.84;;;-1.69;100.00
70302;BME280;57706;56.326;43.882;2024-01-30T03:34:31;101176.88;;;-1.73;100.00
70302;BME280;57706;56.326;43.882;2024-01-30T03:36:57;101175.44;;;-1.80;100.00
70302;BME280;57706;56.326;43.882;2024-01-30T03:39:23;101159.63;;;-1.93;100.00
70302;BME280;57706;56.326;43.882;2024-01-30T03:41:49;101167.22;;;-1.68;100.00
70302;BME280;57706;56.326;43.882;2024-01-30T03:44:14;101157.91;;;-1.72;100.00
70302;BME280;57706;56.326;43.882;2024-01-30T03:46:40;101160.91;;;-1.60;100.00
70302;BME280;57706;56.326;43.882;2024-01-30T03:49:06;101165.06;;;-1.78;100.00
70302;BME280;57706;56.326;43.882;2024-01-30T03:51:32;101172.75;;;-1.77;100.00
70302;BME280;57706;56.326;43.882;2024-01-30T03:53:57;101166.06;;;-1.60;100.00
70302;BME280;57706;56.326;43.882;2024-01-30T03:56:23;101169.78;;;-1.47;100.00
70302;BME280;57706;56.326;43.882;2024-01-30T03:58:51;101161.88;;;-1.63;100.00
70302;BME280;57706;56.326;43.882;2024-01-30T04:01:17;101155.75;;;-1.60;100.00
70302;BME280;57706;56.326;43.882;2024-01-30T04:03:43;101159.34;;;-1.64;100.00
70302;BME280;57706;56.326;43.882;2024-01-30T04:06:10;101156.13;;;-1.49;100.00
70302;BME280;57706;56.326;43.882;2024-01-30T04:08:37;101153.53;;;-1.49;100.00
70302;BME280;57706;56.326;43.882;2024-01-30T04:11:04;101140.59;;;-1.47;100.00
70302;BME280;57706;56.326;43.882;2024-01-30T04:13:34;101153.41;;;-1.46;100.00
70302;BME280;57706;56.326;43.882;2024-01-30T04:16:02;101136.78;;;-1.59;100.00
70302;BME280;57706;56.326;43.882;2024-01-30T04:18:28;101142.25;;;-1.46;100.00
70302;BME280;57706;56.326;43.882;2024-01-30T04:20:55;101145.91;;;-1.31;100.00
70302;BME280;57706;56.326;43.882;2024-01-30T04:23:21;101141.00;;;-1.38;100.00
70302;BME280;57706;56.326;43.882;2024-01-30T04:25:47;101138.78;;;-1.45;100.00
70302;BME280;57706;56.326;43.882;2024-01-30T04:28:13;101145.91;;;-1.31;100.00
70302;BME280;57706;56.326;43.882;2024-01-30T04:30:39;101140.63;;;-1.28;100.00
70302;BME280;57706;56.326;43.882;2024-01-30T04:33:05;101147.59;;;-1.30;100.00
70302;BME280;57706;56.326;43.882;2024-01-30T04:35:31;101148.78;;;-1.18;100.00
70302;BME280;57706;56.326;43.882;2024-01-30T04:37:57;101149.25;;;-1.29;100.00
70302;BME280;57706;56.326;43.882;2024-01-30T04:40:22;101160.19;;;-1.43;100.00
70302;BME280;57706;56.326;43.882;2024-01-30T04:42:48;101143.72;;;-1.20;100.00
70302;BME280;57706;56.326;43.882;2024-01-30T04:45:14;101131.31;;;-1.12;100.00
70302;BME280;57706;56.326;43.882;2024-01-30T04:47:40;101145.88;;;-1.11;100.00
70302;BME280;57706;56.326;43.882;2024-01-30T04:50:07;101146.91;;;-1.15;100.00
70302;BME280;57706;56.326;43.882;2024-01-30T04:52:35;101158.66;;;-1.07;100.00
70302;BME280;57706;56.326;43.882;2024-01-30T04:55:00;101146.50;;;-1.05;100.00
70302;BME280;57706;56.326;43.882;2024-01-30T04:57:27;101141.22;;;-1.02;100.00
70302;BME280;57706;56.326;43.882;2024-01-30T04:59:53;101152.06;;;-1.15;100.00
70302;BME280;57706;56.326;43.882;2024-01-30T05:02:19;101141.13;;;-1.20;100.00
70302;BME280;57706;56.326;43.882;2024-01-30T05:04:44;101145.66;;;-1.25;100.00
70302;BME280;57706;56.326;43.882;2024-01-30T05:07:10;101141.63;;;-1.12;100.00
70302;BME280;57706;56.326;43.882;2024-01-30T05:09:36;101161.88;;;-1.02;100.00
70302;BME280;57706;56.326;43.882;2024-01-30T05:12:02;101150.41;;;-1.16;100.00
70302;BME280;57706;56.326;43.882;2024-01-30T05:14:28;101139.94;;;-1.13;100.00
70302;BME280;57706;56.326;43.882;2024-01-30T05:16:53;101136.75;;;-1.18;100.00
70302;BME280;57706;56.326;43.882;2024-01-30T05:19:19;101140.94;;;-0.96;100.00
70302;BME280;57706;56.326;43.882;2024-01-30T05:21:47;101136.34;;;-0.70;100.00
70302;BME280;57706;56.326;43.882;2024-01-30T05:24:12;101139.97;;;-0.74;100.00
70302;BME280;57706;56.326;43.882;2024-01-30T05:26:38;101146.78;;;-0.73;100.00
70302;BME280;57706;56.326;43.882;2024-01-30T05:29:05;101154.59;;;-0.56;100.00
70302;BME280;57706;56.326;43.882;2024-01-30T05:31:31;101152.00;;;-0.56;100.00
70302;BME280;57706;56.326;43.882;2024-01-30T05:33:57;101157.41;;;-0.79;100.00
70302;BME280;57706;56.326;43.882;2024-01-30T05:36:23;101143.28;;;-0.53;100.00
70302;BME280;57706;56.326;43.882;2024-01-30T05:38:49;101145.19;;;-0.57;100.00
70302;BME280;57706;56.326;43.882;2024-01-30T05:41:15;101155.59;;;-0.58;100.00
70302;BME280;57706;56.326;43.882;2024-01-30T05:43:41;101145.81;;;-0.51;100.00
70302;BME280;57706;56.326;43.882;2024-01-30T05:46:07;101149.78;;;-0.44;100.00
70302;BME280;57706;56.326;43.882;2024-01-30T05:48:33;101154.31;;;-0.49;100.00
70302;BME280;57706;56.326;43.882;2024-01-30T05:51:01;101150.81;;;-0.48;100.00
70302;BME280;57706;56.326;43.882;2024-01-30T05:53:27;101157.59;;;-0.46;100.00
70302;BME280;57706;56.326;43.882;2024-01-30T05:55:53;101152.97;;;-0.39;100.00
70302;BME280;57706;56.326;43.882;2024-01-30T05:58:19;101157.78;;;-0.31;100.00
70302;BME280;57706;56.326;43.882;2024-01-30T06:00:45;101156.50;;;-0.22;100.00
70302;BME280;57706;56.326;43.882;2024-01-30T06:03:10;101161.81;;;-0.25;100.00
70302;BME280;57706;56.326;43.882;2024-01-30T06:05:36;101164.59;;;-0.11;100.00
70302;BME280;57706;56.326;43.882;2024-01-30T06:08:02;101163.06;;;-0.15;100.00
70302;BME280;57706;56.326;43.882;2024-01-30T06:10:28;101156.97;;;0.04;100.00
70302;BME280;57706;56.326;43.882;2024-01-30T06:12:54;101158.97;;;-0.02;100.00
70302;BME280;57706;56.326;43.882;2024-01-30T06:15:19;101158.69;;;0.05;100.00
70302;BME280;57706;56.326;43.882;2024-01-30T06:17:46;101164.13;;;-0.02;100.00
70302;BME280;57706;56.326;43.882;2024-01-30T06:20:12;101162.53;;;0.13;100.00
70302;BME280;57706;56.326;43.882;2024-01-30T06:22:37;101164.59;;;0.24;100.00
70302;BME280;57706;56.326;43.882;2024-01-30T06:25:04;101175.47;;;0.13;100.00
70302;BME280;57706;56.326;43.882;2024-01-30T06:27:30;101173.28;;;0.23;100.00
70302;BME280;57706;56.326;43.882;2024-01-30T06:29:56;101178.16;;;0.47;100.00
70302;BME280;57706;56.326;43.882;2024-01-30T06:32:21;101169.59;;;0.45;100.00
70302;BME280;57706;56.326;43.882;2024-01-30T06:34:47;101187.13;;;0.40;100.00
70302;BME280;57706;56.326;43.882;2024-01-30T06:37:13;101181.56;;;0.48;100.00
70302;BME280;57706;56.326;43.882;2024-01-30T06:39:39;101190.69;;;0.37;100.00
70302;BME280;57706;56.326;43.882;2024-01-30T06:42:05;101189.53;;;0.43;100.00
70302;BME280;57706;56.326;43.882;2024-01-30T06:44:30;101199.28;;;0.56;100.00
70302;BME280;57706;56.326;43.882;2024-01-30T06:46:56;101186.63;;;0.67;100.00
70302;BME280;57706;56.326;43.882;2024-01-30T06:49:22;101187.25;;;0.72;100.00
70302;BME280;57706;56.326;43.882;2024-01-30T06:51:48;101186.03;;;0.62;100.00
70302;BME280;57706;56.326;43.882;2024-01-30T06:54:13;101195.72;;;0.58;100.00
70302;BME280;57706;56.326;43.882;2024-01-30T06:56:39;101186.91;;;0.78;100.00
70302;BME280;57706;56.326;43.882;2024-01-30T06:59:05;101190.72;;;0.89;100.00
70302;BME280;57706;56.326;43.882;2024-01-30T07:01:31;101184.84;;;0.85;100.00
70302;BME280;57706;56.326;43.882;2024-01-30T07:03:57;101186.13;;;0.94;100.00
70302;BME280;57706;56.326;43.882;2024-01-30T07:06:23;101185.97;;;0.97;100.00
70302;BME280;57706;56.326;43.882;2024-01-30T07:08:49;101191.41;;;1.08;100.00
70302;BME280;57706;56.326;43.882;2024-01-30T07:11:19;101186.50;;;1.20;100.00
70302;BME280;57706;56.326;43.882;2024-01-30T07:13:45;101189.25;;;1.17;100.00
70302;BME280;57706;56.326;43.882;2024-01-30T07:16:12;101200.41;;;1.01;100.00
70302;BME280;57706;56.326;43.882;2024-01-30T07:18:38;101191.59;;;1.05;100.00
70302;BME280;57706;56.326;43.882;2024-01-30T07:21:04;101200.59;;;0.98;100.00
70302;BME280;57706;56.326;43.882;2024-01-30T07:23:30;101201.78;;;1.08;100.00
70302;BME280;57706;56.326;43.882;2024-01-30T07:25:56;101205.53;;;1.19;100.00
70302;BME280;57706;56.326;43.882;2024-01-30T07:28:21;101221.81;;;1.05;100.00
70302;BME280;57706;56.326;43.882;2024-01-30T07:30:47;101205.09;;;1.10;100.00
70302;BME280;57706;56.326;43.882;2024-01-30T07:33:14;101212.88;;;1.10;100.00
70302;BME280;57706;56.326;43.882;2024-01-30T07:35:39;101218.66;;;1.16;100.00
70302;BME280;57706;56.326;43.882;2024-01-30T07:38:05;101208.31;;;1.16;100.00
70302;BME280;57706;56.326;43.882;2024-01-30T07:40:31;101219.50;;;1.16;100.00
70302;BME280;57706;56.326;43.882;2024-01-30T07:42:58;101224.63;;;1.00;100.00
70302;BME280;57706;56.326;43.882;2024-01-30T07:45:24;101218.50;;;1.19;100.00
70302;BME280;57706;56.326;43.882;2024-01-30T07:47:52;101215.19;;;1.49;100.00
70302;BME280;57706;56.326;43.882;2024-01-30T07:50:18;101214.19;;;1.68;100.00
70302;BME280;57706;56.326;43.882;2024-01-30T07:52:44;101220.53;;;1.78;100.00
70302;BME280;57706;56.326;43.882;2024-01-30T07:55:10;101221.44;;;1.77;100.00
70302;BME280;57706;56.326;43.882;2024-01-30T07:57:38;101219.03;;;1.74;100.00
70302;BME280;57706;56.326;43.882;2024-01-30T08:00:05;101228.06;;;1.67;100.00
70302;BME280;57706;56.326;43.882;2024-01-30T08:02:34;101238.00;;;1.90;100.00
70302;BME280;57706;56.326;43.882;2024-01-30T08:05:00;101231.41;;;1.69;100.00
70302;BME280;57706;56.326;43.882;2024-01-30T08:07:25;101241.50;;;1.73;100.00
70302;BME280;57706;56.326;43.882;2024-01-30T08:09:51;101243.28;;;1.73;100.00
70302;BME280;57706;56.326;43.882;2024-01-30T08:12:17;101236.44;;;1.72;100.00
70302;BME280;57706;56.326;43.882;2024-01-30T08:14:43;101240.50;;;1.76;100.00
70302;BME280;57706;56.326;43.882;2024-01-30T08:17:09;101235.16;;;1.95;100.00
70302;BME280;57706;56.326;43.882;2024-01-30T08:19:34;101216.75;;;2.00;100.00
70302;BME280;57706;56.326;43.882;2024-01-30T08:22:00;101228.25;;;2.10;100.00
70302;BME280;57706;56.326;43.882;2024-01-30T08:24:26;101221.41;;;2.25;100.00
70302;BME280;57706;56.326;43.882;2024-01-30T08:26:51;101215.28;;;2.26;100.00
70302;BME280;57706;56.326;43.882;2024-01-30T08:29:17;101211.50;;;2.32;100.00
70302;BME280;57706;56.326;43.882;2024-01-30T08:31:43;101215.34;;;2.55;100.00
70302;BME280;57706;56.326;43.882;2024-01-30T08:34:09;101207.28;;;2.60;100.00
70302;BME280;57706;56.326;43.882;2024-01-30T08:36:36;101215.84;;;2.62;100.00
70302;BME280;57706;56.326;43.882;2024-01-30T08:39:02;101200.63;;;2.70;100.00
70302;BME280;57706;56.326;43.882;2024-01-30T08:41:28;101211.47;;;2.63;100.00
70302;BME280;57706;56.326;43.882;2024-01-30T08:43:54;101217.66;;;2.60;100.00
70302;BME280;57706;56.326;43.882;2024-01-30T08:46:20;101226.72;;;2.53;100.00
70302;BME280;57706;56.326;43.882;2024-01-30T08:48:46;101232.97;;;2.50;100.00
70302;BME280;57706;56.326;43.882;2024-01-30T08:51:13;101223.50;;;2.49;100.00
70302;BME280;57706;56.326;43.882;2024-01-30T08:53:40;101225.19;;;2.34;100.00
70302;BME280;57706;56.326;43.882;2024-01-30T08:56:06;101233.31;;;2.28;100.00
70302;BME280;57706;56.326;43.882;2024-01-30T08:58:32;101217.41;;;2.34;100.00
70302;BME280;57706;56.326;43.882;2024-01-30T09:00:58;101215.56;;;2.36;100.00
70302;BME280;57706;56.326;43.882;2024-01-30T09:03:24;101218.81;;;2.40;100.00
70302;BME280;57706;56.326;43.882;2024-01-30T09:05:50;101218.03;;;2.54;100.00
70302;BME280;57706;56.326;43.882;2024-01-30T09:08:16;101217.88;;;2.71;100.00
70302;BME280;57706;56.326;43.882;2024-01-30T09:10:41;101223.63;;;2.77;100.00
70302;BME280;57706;56.326;43.882;2024-01-30T09:13:07;101225.78;;;2.84;100.00
70302;BME280;57706;56.326;43.882;2024-01-30T09:15:33;101226.72;;;2.83;100.00
70302;BME280;57706;56.326;43.882;2024-01-30T09:17:59;101227.88;;;2.78;100.00
70302;BME280;57706;56.326;43.882;2024-01-30T09:20:24;101239.97;;;2.79;100.00
70302;BME280;57706;56.326;43.882;2024-01-30T09:22:50;101229.00;;;2.73;100.00
70302;BME280;57706;56.326;43.882;2024-01-30T09:25:16;101230.66;;;2.74;100.00
70302;BME280;57706;56.326;43.882;2024-01-30T09:27:42;101229.09;;;2.86;100.00
70302;BME280;57706;56.326;43.882;2024-01-30T09:30:08;101237.91;;;2.84;100.00
70302;BME280;57706;56.326;43.882;2024-01-30T09:32:33;101232.16;;;2.79;100.00
70302;BME280;57706;56.326;43.882;2024-01-30T09:34:59;101238.09;;;2.81;100.00
70302;BME280;57706;56.326;43.882;2024-01-30T09:37:25;101236.25;;;2.97;100.00
70302;BME280;57706;56.326;43.882;2024-01-30T09:39:51;101236.00;;;3.16;100.00
70302;BME280;57706;56.326;43.882;2024-01-30T09:42:35;101247.03;;;3.20;100.00
70302;BME280;57706;56.326;43.882;2024-01-30T09:45:03;101250.81;;;3.29;100.00
70302;BME280;57706;56.326;43.882;2024-01-30T09:47:40;101249.44;;;3.09;100.00
70302;BME280;57706;56.326;43.882;2024-01-30T09:50:09;101240.34;;;3.16;100.00
70302;BME280;57706;56.326;43.882;2024-01-30T09:52:35;101233.66;;;3.26;100.00
70302;BME280;57706;56.326;43.882;2024-01-30T09:55:01;101237.38;;;3.37;100.00
70302;BME280;57706;56.326;43.882;2024-01-30T09:57:29;101237.03;;;3.56;100.00
70302;BME280;57706;56.326;43.882;2024-01-30T09:59:55;101234.34;;;3.57;100.00
70302;BME280;57706;56.326;43.882;2024-01-30T10:02:22;101237.16;;;3.40;100.00
70302;BME280;57706;56.326;43.882;2024-01-30T10:04:48;101234.09;;;3.48;100.00
70302;BME280;57706;56.326;43.882;2024-01-30T10:07:15;101243.09;;;3.56;100.00
70302;BME280;57706;56.326;43.882;2024-01-30T10:09:41;101251.03;;;3.68;100.00
70302;BME280;57706;56.326;43.882;2024-01-30T10:12:08;101248.28;;;3.56;100.00
70302;BME280;57706;56.326;43.882;2024-01-30T10:14:38;101241.22;;;3.58;100.00
70302;BME280;57706;56.326;43.882;2024-01-30T10:17:03;101250.97;;;3.97;100.00
70302;BME280;57706;56.326;43.882;2024-01-30T10:19:31;101254.78;;;4.19;100.00
70302;BME280;57706;56.326;43.882;2024-01-30T10:21:57;101259.75;;;4.36;99.47
70302;BME280;57706;56.326;43.882;2024-01-30T10:24:25;101254.53;;;4.36;97.21
70302;BME280;57706;56.326;43.882;2024-01-30T10:26:53;101251.94;;;4.36;94.90
70302;BME280;57706;56.326;43.882;2024-01-30T10:29:19;101254.66;;;4.48;95.92
70302;BME280;57706;56.326;43.882;2024-01-30T10:31:44;101251.16;;;4.75;92.95
70302;BME280;57706;56.326;43.882;2024-01-30T10:34:10;101260.13;;;4.71;90.53
70302;BME280;57706;56.326;43.882;2024-01-30T10:36:46;101257.16;;;4.36;90.50
70302;BME280;57706;56.326;43.882;2024-01-30T10:39:17;101255.69;;;4.45;91.53
70302;BME280;57706;56.326;43.882;2024-01-30T10:41:43;101256.31;;;4.36;92.52
70302;BME280;57706;56.326;43.882;2024-01-30T10:44:15;101267.13;;;4.43;92.08
70302;BME280;57706;56.326;43.882;2024-01-30T10:46:45;101259.53;;;4.39;91.87
70302;BME280;57706;56.326;43.882;2024-01-30T10:49:16;101266.69;;;4.23;93.07
70302;BME280;57706;56.326;43.882;2024-01-30T10:51:42;101274.59;;;4.34;93.33
70302;BME280;57706;56.326;43.882;2024-01-30T10:54:09;101280.38;;;4.12;93.07
70302;BME280;57706;56.326;43.882;2024-01-30T10:56:36;101277.22;;;4.34;93.28
70302;BME280;57706;56.326;43.882;2024-01-30T10:59:02;101278.50;;;4.41;91.07
70302;BME280;57706;56.326;43.882;2024-01-30T11:01:29;101269.56;;;4.46;90.55
70302;BME280;57706;56.326;43.882;2024-01-30T11:03:56;101278.66;;;4.66;88.66
70302;BME280;57706;56.326;43.882;2024-01-30T11:06:23;101265.50;;;4.67;87.81
70302;BME280;57706;56.326;43.882;2024-01-30T11:09:03;101277.81;;;4.78;87.17
70302;BME280;57706;56.326;43.882;2024-01-30T11:11:48;101265.34;;;4.96;84.32
70302;BME280;57706;56.326;43.882;2024-01-30T11:14:14;101275.94;;;4.67;85.25
70302;BME280;57706;56.326;43.882;2024-01-30T11:16:40;101273.66;;;4.76;84.99
70302;BME280;57706;56.326;43.882;2024-01-30T11:19:10;101270.97;;;4.90;81.74
70302;BME280;57706;56.326;43.882;2024-01-30T11:21:43;101265.88;;;5.65;78.21
70302;BME280;57706;56.326;43.882;2024-01-30T11:24:09;101280.44;;;5.81;77.24
70302;BME280;57706;56.326;43.882;2024-01-30T11:26:35;101276.38;;;5.76;73.58
70302;BME280;57706;56.326;43.882;2024-01-30T11:29:04;101273.41;;;5.57;74.76
70302;BME280;57706;56.326;43.882;2024-01-30T11:31:32;101287.50;;;5.41;75.33
70302;BME280;57706;56.326;43.882;2024-01-30T11:33:59;101285.56;;;5.19;77.16
70302;BME280;57706;56.326;43.882;2024-01-30T11:36:26;101291.16;;;4.87;79.56
70302;BME280;57706;56.326;43.882;2024-01-30T11:38:54;101302.13;;;4.79;80.90
70302;BME280;57706;56.326;43.882;2024-01-30T11:41:20;101301.72;;;4.45;82.95
70302;BME280;57706;56.326;43.882;2024-01-30T11:43:53;101314.19;;;4.12;86.42
70302;BME280;57706;56.326;43.882;2024-01-30T11:46:19;101314.94;;;4.14;88.17
70302;BME280;57706;56.326;43.882;2024-01-30T11:48:45;101307.66;;;4.19;87.65
70302;BME280;57706;56.326;43.882;2024-01-30T11:51:13;101323.50;;;4.16;88.47
70302;BME280;57706;56.326;43.882;2024-01-30T11:53:39;101310.22;;;4.34;87.28
70302;BME280;57706;56.326;43.882;2024-01-30T11:56:08;101320.97;;;4.15;86.91
70302;BME280;57706;56.326;43.882;2024-01-30T11:58:34;101335.44;;;4.19;87.95
70302;BME280;57706;56.326;43.882;2024-01-30T12:01:00;101332.16;;;4.57;83.01
70302;BME280;57706;56.326;43.882;2024-01-30T12:03:26;101331.53;;;4.53;83.85
70302;BME280;57706;56.326;43.882;2024-01-30T12:05:58;101325.38;;;5.97;79.43
70302;BME280;57706;56.326;43.882;2024-01-30T12:08:24;101327.41;;;9.02;64.02
70302;BME280;57706;56.326;43.882;2024-01-30T12:10:57;101321.59;;;10.70;54.49
70302;BME280;57706;56.326;43.882;2024-01-30T12:13:28;101313.03;;;10.39;52.60
70302;BME280;57706;56.326;43.882;2024-01-30T12:15:54;101318.00;;;10.22;52.72
70302;BME280;57706;56.326;43.882;2024-01-30T12:18:21;101318.41;;;9.57;53.05
70302;BME280;57706;56.326;43.882;2024-01-30T12:20:57;101318.16;;;7.99;57.02
70302;BME280;57706;56.326;43.882;2024-01-30T12:23:24;101323.06;;;6.30;62.87
70302;BME280;57706;56.326;43.882;2024-01-30T12:25:52;101318.19;;;5.88;67.21
70302;BME280;57706;56.326;43.882;2024-01-30T12:28:18;101332.25;;;5.35;70.45
70302;BME280;57706;56.326;43.882;2024-01-30T12:30:43;101332.97;;;4.98;74.00
70302;BME280;57706;56.326;43.882;2024-01-30T12:33:09;101339.91;;;4.72;76.95
70302;BME280;57706;56.326;43.882;2024-01-30T12:35:35;101339.34;;;4.26;80.74